Nearby Weather Observations


KTIP - Rantoul, Illinois, USA
Distance from station: ENE 12mi, 19km
Updated: Sun, 18-Feb-2018 11:55pm CST
Overcast
Overcast
 Wind from SSE
Wind: SSE 14 mph , 22 km/h
Temperature: 43°F , 6°C
Wind Chill: 36°F , 2°C
Dew Point: 37°F , 3°C
Humidity: 81%
Barometer: 29.90 inHg , 1012.5 hPa
Clouds: Overcast
Visibility: 10 miles , 16 km
Cloud details: Partly cloudy 6000 ft
Overcast 7500 ft
2018/02/19 05:55 KTIP 190555Z AUTO 16012KT 10SM SCT060 OVC075 06/03 A2990 RMK AO2 LTG DSNT NW T00580025 10060 20037 400811053
KCMI - Champaign/Urbana, Illinois, USA
Distance from station: SSE 14mi, 22km
Updated: Sun, 18-Feb-2018 11:53pm CST
Mostly cloudy
Mostly cloudy
 Wind from SSE
Wind: SSE 18 mph , 30 km/h
Temperature: 43°F , 6°C
Wind Chill: 35°F , 2°C
Dew Point: 36°F , 2°C
Humidity: 76%
Barometer: 29.89 inHg , 1012.2 hPa
Clouds: Mostly cloudy
Visibility: 10 miles , 16 km
Cloud details: Mostly cloudy 9000 ft
2018/02/19 05:53 KCMI 190553Z AUTO 16016KT 10SM BKN090 06/02 A2989 RMK AO2 SLP127 T00610017 10061 20017 400781061 58022
 
KBMI - Bloomington/Norm, Illinois, USA
Distance from station: WNW 34mi, 55km
Updated: Sun, 18-Feb-2018 11:56pm CST
Overcast
Overcast
 Wind from S
Wind: S 22 mph , 35 km/h
Temperature: 43°F , 6°C
Wind Chill: 34°F , 1°C
Dew Point: 36°F , 2°C
Humidity: 76%
Barometer: 29.85 inHg , 1010.8 hPa
Clouds: Overcast
Visibility: 10 miles , 16 km
Cloud details: Mostly cloudy 4200 ft
Overcast 5000 ft
2018/02/19 05:56 KBMI 190556Z AUTO 18019KT 10SM BKN042 OVC050 06/02 A2985 RMK AO2 SLP134 T00610017 10061 20033 400721089 58018 $
KDEC - Decatur, Illinois, USA
Distance from station: SW 37mi, 60km
Updated: Sun, 18-Feb-2018 11:54pm CST
Light rain, Overcast
Light rain, Overcast
 Wind from S
Wind: S 18 mph , 30 km/h, Gust: 28 mph , 44 km/h
Temperature: 45°F , 7°C
Wind Chill: 37°F , 3°C
Dew Point: 37°F , 3°C
Humidity: 76%
Barometer: 29.88 inHg , 1011.9 hPa
Summary: Light rain
Clouds: Overcast
Visibility: 8 miles , 13 km
Cloud details: Mostly cloudy 4600 ft
Overcast 5500 ft
2018/02/19 05:54 KDEC 190554Z AUTO 18016G24KT 8SM -RA BKN046 OVC055 07/03 A2988 RMK AO2 RAB41 SLP120 P0001 60001 T00720033 10083 20056 400891072 57021
 
KDNV - Danville, Illinois, USA
Distance from station: E 40mi, 65km
Updated: Sun, 18-Feb-2018 11:55pm CST
Overcast
Overcast
 Wind from S
Wind: S 15 mph , 24 km/h, Gust: 22 mph , 35 km/h
Temperature: 45°F , 7°C
Wind Chill: 38°F , 3°C
Dew Point: 32°F , 0°C
Humidity: 61%
Barometer: 29.90 inHg , 1012.5 hPa
Clouds: Overcast
Visibility: 10 miles , 16 km
Cloud details: Partly cloudy 2600 ft
Overcast 7000 ft
2018/02/19 05:55 KDNV 190555Z AUTO 17013G19KT 10SM SCT026 OVC070 07/00 A2990 RMK AO2 T00660003 10066 20026 400721060
KAAA - Lincoln, Illinois, USA
Distance from station: W 52mi, 83km
Updated: Sun, 18-Feb-2018 11:55pm CST
Overcast
Overcast
 Wind from S
Wind: S 15 mph , 24 km/h, Gust: 21 mph , 33 km/h
Temperature: 46°F , 8°C
Wind Chill: 40°F , 4°C
Dew Point: 39°F , 4°C
Humidity: 76%
Barometer: 29.85 inHg , 1010.8 hPa
Clouds: Overcast
Visibility: 10 miles , 16 km
Cloud details: Overcast 4800 ft
2018/02/19 05:55 KAAA 190555Z AUTO 18013G18KT 10SM OVC048 08/04 A2985 RMK AO2 LTG DSNT N T00770040 10078 20040 400931062
 
KMTO - Mattoon/Charlest, Illinois, USA
Distance from station: S 52mi, 84km
Updated: Sun, 18-Feb-2018 11:53pm CST
Mostly cloudy
Mostly cloudy
 Wind from SSE
Wind: SSE 16 mph , 26 km/h
Temperature: 46°F , 8°C
Wind Chill: 39°F , 4°C
Dew Point: 36°F , 2°C
Humidity: 66%
Barometer: 29.92 inHg , 1013.2 hPa
Clouds: Mostly cloudy
Visibility: 10 miles , 16 km
Cloud details: Partly cloudy 2400 ft
Mostly cloudy 4700 ft
Mostly cloudy 11000 ft
2018/02/19 05:53 KMTO 190553Z AUTO 16014KT 10SM SCT024 BKN047 BKN110 08/02 A2992 RMK AO2 SLP135 T00780017 10078 20061 400831050 56017
KSPI - Springfield, Illinois, USA
Distance from station: WSW 74mi, 120km
Updated: Sun, 18-Feb-2018 11:52pm CST
Light rain, Overcast
Light rain, Overcast
 Wind from S
Wind: S 20 mph , 31 km/h, Gust: 32 mph , 52 km/h
Temperature: 48°F , 9°C
Wind Chill: 41°F , 5°C
Dew Point: 39°F , 4°C
Humidity: 71%
Barometer: 29.84 inHg , 1010.5 hPa
Summary: Light rain
Clouds: Overcast
Visibility: 10 miles , 16 km
Cloud details: Partly cloudy 1800 ft
Overcast 4700 ft
2018/02/19 05:52 KSPI 190552Z AUTO 18017G28KT 10SM -RA SCT018 OVC047 09/04 A2984 RMK AO2 PK WND 19029/0537 RAB28 SLP108 P0000 60000 T00890039 10089 20067 401061067 56017
 
KLAF - Lafayette, Indiana, USA
Distance from station: E 76mi, 123km
Updated: Sun, 18-Feb-2018 11:54pm CST
Mostly cloudy
Mostly cloudy
 Wind from S
Wind: S 12 mph , 19 km/h, Gust: 18 mph , 30 km/h
Temperature: 43°F , 6°C
Wind Chill: 37°F , 3°C
Dew Point: 34°F , 1°C
Humidity: 71%
Barometer: 29.94 inHg , 1013.9 hPa
Clouds: Mostly cloudy
Visibility: 10 miles , 16 km
Cloud details: Few Clouds 9000 ft
Mostly cloudy 11000 ft
2018/02/19 05:54 KLAF 190554Z AUTO 17010G16KT 10SM FEW090 BKN110 06/01 A2994 RMK AO2 SLP143 T00610006 10061 20039 58021
KPIA - Peoria, Illinois, USA
Distance from station: WNW 76mi, 123km
Updated: Sun, 18-Feb-2018 11:54pm CST
Light rain, Overcast
Light rain, Overcast
 Wind from SSW
Wind: SSW 8 mph , 13 km/h
Temperature: 43°F , 6°C
Wind Chill: 38°F , 3°C
Dew Point: 36°F , 2°C
Humidity: 76%
Barometer: 29.86 inHg , 1011.2 hPa
Summary: Light rain
Clouds: Overcast
Visibility: 10 miles , 16 km
Cloud details: Mostly cloudy 3000 ft
Overcast 3600 ft
2018/02/19 05:54 KPIA 190554Z 20007KT 10SM -RA BKN030 OVC036 06/02 A2986 RMK AO2 RAB0459 SLP115 P0002 60002 T00560022 10061 20050 400831089 55008 $
 
KHUF - Terre Haute, Indiana, USA
Distance from station: SE 77mi, 124km
Updated: Sun, 18-Feb-2018 11:53pm CST
Mostly cloudy
Mostly cloudy
 Wind from S
Wind: S 14 mph , 22 km/h
Temperature: 46°F , 8°C
Wind Chill: 40°F , 4°C
Dew Point: 36°F , 2°C
Humidity: 66%
Barometer: 29.98 inHg , 1015.2 hPa
Clouds: Mostly cloudy
Visibility: 10 miles , 16 km
Cloud details: Mostly cloudy 3000 ft
Mostly cloudy 11000 ft
2018/02/19 05:53 KHUF 190553Z 18012KT 10SM BKN030 BKN110 08/02 A2998 RMK AO2 SLP156 T00780017 10078 20050 56014
K1H2 - Effingham, Illinois, USA
Distance from station: S 80mi, 129km
Updated: Sun, 18-Feb-2018 11:55pm CST
Overcast
Overcast
 Wind from SE
Wind: SE 10 mph , 17 km/h
Temperature: 48°F , 9°C
Wind Chill: 44°F , 7°C
Dew Point: 37°F , 3°C
Humidity: 66%
Barometer: 29.96 inHg , 1014.6 hPa
Clouds: Overcast
Visibility: 10 miles , 16 km
Cloud details: Partly cloudy 2100 ft
Mostly cloudy 3600 ft
Overcast 6000 ft
2018/02/19 05:55 K1H2 190555Z AUTO 13009KT 10SM SCT021 BKN036 OVC060 09/03 A2996 RMK AO2 T00880027 10088 20065 400961037
 
KIND - Indianapolis, Indiana, USA
Distance from station: ESE 117mi, 133km
Updated: Sun, 18-Feb-2018 11:54pm CST
Mostly cloudy
Mostly cloudy
 Wind from SSE
Wind: SSE 12 mph , 19 km/h
Temperature: 43°F , 6°C
Wind Chill: 37°F , 3°C
Dew Point: 34°F , 1°C
Humidity: 71%
Barometer: 30.01 inHg , 1016.3 hPa
Clouds: Mostly cloudy
Visibility: 10 miles , 16 km
Cloud details: Mostly cloudy 3300 ft
2018/02/19 05:54 KIND 190554Z 15010KT 10SM BKN033 06/01 A3001 RMK AO2 SLP167 T00610006 10061 20044 56019
KORD - Chicago O'hare, Illinois, USA
Distance from station: N 126mi, 203km
Updated: Sun, 18-Feb-2018 11:51pm CST
Light rain, Overcast
Light rain, Overcast
 Wind from SSW
Wind: SSW 10 mph , 17 km/h
Temperature: 39°F , 4°C
Wind Chill: 32°F , 0°C
Dew Point: 32°F , 0°C
Humidity: 75%
Barometer: 29.88 inHg , 1011.9 hPa
Summary: Light rain
Clouds: Overcast
Visibility: 10 miles , 16 km
Cloud details: Mostly cloudy 5500 ft
Overcast 8000 ft
2018/02/19 05:51 KORD 190551Z 20009KT 10SM -RA BKN055 OVC080 04/00 A2988 RMK AO2 RAB29 SLP126 P0002 60002 T00440000 10050 20022 400501111 55008 $
 
KSTL - St. Louis, Missouri, USA
Distance from station: SW 150mi, 185km
Updated: Sun, 18-Feb-2018 11:51pm CST
Overcast
Overcast
 Wind from S
Wind: S 12 mph , 19 km/h, Gust: 20 mph , 31 km/h
Temperature: 52°F , 11°C
Dew Point: 43°F , 6°C
Humidity: 72%
Barometer: 29.88 inHg , 1011.9 hPa
Clouds: Overcast
Visibility: 10 miles , 16 km
Cloud details: Mostly cloudy 1900 ft
Overcast 2700 ft
2018/02/19 05:51 KSTL 190551Z 19010G17KT 10SM BKN019 OVC027 11/06 A2988 RMK AO2 SLP120 T01060061 10106 20089 401171028 56009